createdAt,value
2023-05-03T00:00:49.242Z,83.78
2023-05-03T00:04:56.690Z,83.80
2023-05-03T00:08:59.101Z,84.43
2023-05-03T00:13:01.235Z,83.04
2023-05-03T00:17:03.226Z,81.01
2023-05-03T00:21:05.431Z,80.15
2023-05-03T00:25:11.167Z,81.49
2023-05-03T00:29:13.084Z,82.25
2023-05-03T00:33:16.297Z,82.36
2023-05-03T00:37:18.245Z,80.94
2023-05-03T00:41:21.328Z,81.13
2023-05-03T00:45:23.766Z,82.13
2023-05-03T00:50:08.957Z,82.98
2023-05-03T00:54:14.479Z,82.52
2023-05-03T00:58:17.408Z,82.31
2023-05-03T01:02:19.860Z,83.50
2023-05-03T01:06:31.843Z,85.57
2023-05-03T01:10:46.986Z,85.85
2023-05-03T01:15:04.190Z,85.98
2023-05-03T01:19:33.109Z,86.35
2023-05-03T01:23:53.564Z,86.18
2023-05-03T01:27:56.211Z,86.28
2023-05-03T01:32:01.652Z,86.56
2023-05-03T01:36:12.721Z,86.84
2023-05-03T01:40:22.423Z,87.39
2023-05-03T01:44:26.467Z,88.65
2023-05-03T01:48:28.295Z,89.35
2023-05-03T01:52:30.467Z,89.09
2023-05-03T01:56:34.366Z,90.64
2023-05-03T02:00:36.250Z,91.86
2023-05-03T02:04:38.295Z,92.16
2023-05-03T02:08:40.400Z,93.11
2023-05-03T02:12:44.001Z,92.81
2023-05-03T02:16:46.277Z,93.86
2023-05-03T02:20:48.367Z,93.90
2023-05-03T02:24:50.545Z,96.15
2023-05-03T02:28:52.621Z,98.81
2023-05-03T02:32:54.516Z,100.00
2023-05-03T02:36:58.464Z,100.00
2023-05-03T02:41:01.334Z,100.00
2023-05-03T02:45:04.714Z,100.00
2023-05-03T02:49:07.966Z,100.00
2023-05-03T02:53:09.957Z,100.00
2023-05-03T02:57:13.996Z,100.00
2023-05-03T03:01:17.304Z,100.00
2023-05-03T03:05:22.629Z,100.00
2023-05-03T03:09:39.620Z,100.00
2023-05-03T03:13:52.118Z,100.00
2023-05-03T03:18:23.436Z,100.00
2023-05-03T03:22:29.610Z,100.00
2023-05-03T03:26:52.814Z,100.00
2023-05-03T03:31:01.924Z,100.00
2023-05-03T03:35:27.891Z,100.00
2023-05-03T03:39:31.695Z,100.00
2023-05-03T03:43:35.122Z,100.00
2023-05-03T03:47:37.990Z,100.00
2023-05-03T03:51:40.090Z,100.00
2023-05-03T03:55:47.880Z,100.00
2023-05-03T04:27:58.618Z,95.63
2023-05-03T04:32:13.972Z,95.56
2023-05-03T04:36:15.418Z,95.96
2023-05-03T04:40:21.473Z,93.51
2023-05-03T04:44:23.305Z,91.85
2023-05-03T04:48:24.718Z,92.27
2023-05-03T04:52:26.463Z,89.17
2023-05-03T04:56:38.546Z,88.11
2023-05-03T05:00:45.902Z,85.55
2023-05-03T05:04:47.405Z,82.70
2023-05-03T05:08:54.838Z,81.35
2023-05-03T05:12:57.606Z,76.62
2023-05-03T05:16:59.590Z,73.81
2023-05-03T05:21:00.970Z,73.69
2023-05-03T05:25:02.793Z,74.82
2023-05-03T05:29:04.894Z,74.05
2023-05-03T05:33:11.492Z,74.16
2023-05-03T05:37:13.225Z,75.98
2023-05-03T05:41:21.830Z,75.96
2023-05-03T05:49:54.828Z,78.38
2023-05-03T05:53:58.846Z,78.46
2023-05-03T05:58:01.963Z,77.43
2023-05-03T06:06:40.677Z,75.02
2023-05-03T06:15:06.088Z,73.27
2023-05-03T06:57:53.359Z,59.28
2023-05-03T07:06:54.707Z,56.22
2023-05-03T07:11:02.097Z,53.85
2023-05-03T07:15:04.549Z,53.02
2023-05-03T07:19:06.132Z,53.07
2023-05-03T07:23:07.582Z,52.36
2023-05-03T07:27:09.123Z,50.92
2023-05-03T07:31:11.479Z,49.50
2023-05-03T07:35:12.901Z,48.26
2023-05-03T07:39:15.392Z,48.62
2023-05-03T07:43:19.089Z,48.68
2023-05-03T07:47:20.953Z,49.34
2023-05-03T07:51:22.928Z,50.24
2023-05-03T07:55:25.006Z,50.44
2023-05-03T07:59:26.797Z,49.31
2023-05-03T08:03:28.832Z,49.84
2023-05-03T08:07:31.441Z,50.88
2023-05-03T08:11:36.210Z,50.93
2023-05-03T08:15:37.875Z,51.36
2023-05-03T08:19:39.767Z,51.37
2023-05-03T08:23:41.908Z,51.23
2023-05-03T08:27:43.636Z,51.35
2023-05-03T08:31:45.830Z,51.96
2023-05-03T08:35:49.271Z,52.96
2023-05-03T08:39:51.622Z,53.35
2023-05-03T08:43:54.728Z,51.23
2023-05-03T08:47:56.592Z,51.18
2023-05-03T08:52:00.994Z,51.63
2023-05-03T08:56:09.921Z,50.07
2023-05-03T09:00:12.201Z,50.79
2023-05-03T09:04:14.597Z,51.51
2023-05-03T09:08:16.535Z,53.06
2023-05-03T09:12:40.456Z,50.75
2023-05-03T09:16:44.101Z,49.64
2023-05-03T09:20:51.098Z,47.74
2023-05-03T09:24:58.049Z,47.32
2023-05-03T09:29:01.434Z,46.45
2023-05-03T09:33:04.011Z,48.06
2023-05-03T09:37:06.419Z,49.87
2023-05-03T09:41:08.688Z,47.72
2023-05-03T09:45:11.050Z,47.69
2023-05-03T09:49:14.107Z,49.42
2023-05-03T09:53:21.108Z,46.93
2023-05-03T09:57:23.255Z,46.32
2023-05-03T10:01:26.031Z,46.50
2023-05-03T10:05:34.546Z,47.82
2023-05-03T10:09:42.185Z,48.63
2023-05-03T10:13:45.300Z,48.32
2023-05-03T10:17:53.529Z,48.08
2023-05-03T10:22:11.505Z,47.82
2023-05-03T10:26:18.839Z,48.84
2023-05-03T10:30:41.866Z,48.31
2023-05-03T10:34:46.325Z,48.24
2023-05-03T10:43:34.926Z,50.56
2023-05-03T10:47:37.005Z,47.12
2023-05-03T10:51:40.141Z,49.06
2023-05-03T10:56:20.820Z,53.14
2023-05-03T11:00:43.627Z,49.94
2023-05-03T11:04:49.636Z,49.67
2023-05-03T11:08:51.632Z,48.60
2023-05-03T11:12:56.332Z,48.58
2023-05-03T11:16:58.424Z,48.97
2023-05-03T11:21:01.408Z,49.72
2023-05-03T11:25:03.623Z,49.22
2023-05-03T11:29:05.847Z,50.67
2023-05-03T11:33:08.307Z,49.20
2023-05-03T11:37:10.495Z,48.88
2023-05-03T11:41:17.555Z,49.23
2023-05-03T11:45:26.799Z,48.69
2023-05-03T11:49:29.132Z,48.34
2023-05-03T11:53:31.733Z,48.54
2023-05-03T11:57:33.812Z,49.69
2023-05-03T12:01:35.986Z,50.13
2023-05-03T12:05:38.507Z,48.98
2023-05-03T12:09:41.502Z,49.08
2023-05-03T12:13:47.714Z,48.44
2023-05-03T12:17:56.728Z,49.20
2023-05-03T12:22:13.234Z,47.79
2023-05-03T12:26:21.964Z,47.82
2023-05-03T12:30:24.753Z,45.55
2023-05-03T12:38:37.052Z,47.75
2023-05-03T12:42:43.256Z,46.40
2023-05-03T12:46:46.376Z,47.32
2023-05-03T12:50:51.906Z,47.74
2023-05-03T12:54:57.535Z,46.29
2023-05-03T13:07:16.482Z,46.82
2023-05-03T13:11:19.838Z,46.29
2023-05-03T13:15:24.777Z,45.94
2023-05-03T13:19:27.653Z,46.48
2023-05-03T13:23:29.704Z,47.31
2023-05-03T13:27:31.902Z,46.85
2023-05-03T13:31:35.188Z,46.92
2023-05-03T13:35:37.292Z,47.22
2023-05-03T13:39:39.796Z,46.30
2023-05-03T13:43:42.433Z,45.62
2023-05-03T13:51:49.411Z,47.35
2023-05-03T13:55:51.588Z,48.21
2023-05-03T13:59:56.113Z,46.92
2023-05-03T14:03:58.356Z,45.68
2023-05-03T14:08:00.334Z,45.79
2023-05-03T14:12:03.650Z,45.33
2023-05-03T14:16:06.083Z,46.53
2023-05-03T14:20:10.386Z,46.32
2023-05-03T14:24:12.654Z,46.26
2023-05-03T14:28:15.364Z,45.35
2023-05-03T14:36:53.398Z,46.30
2023-05-03T14:40:55.128Z,47.66
2023-05-03T14:45:09.855Z,47.61
2023-05-03T14:49:13.655Z,47.03
2023-05-03T14:53:16.040Z,45.70
2023-05-03T14:57:17.651Z,44.65
2023-05-03T15:01:19.807Z,45.97
2023-05-03T15:05:21.458Z,45.17
2023-05-03T15:09:22.832Z,44.92
2023-05-03T15:13:29.638Z,44.99
2023-05-03T15:17:31.109Z,47.48
2023-05-03T15:21:44.180Z,46.14
2023-05-03T15:25:45.951Z,46.38
2023-05-03T15:29:47.343Z,45.82
2023-05-03T15:33:48.709Z,45.40
2023-05-03T15:37:50.180Z,45.09
2023-05-03T15:41:51.674Z,44.52
2023-05-03T15:45:54.915Z,45.66
2023-05-03T15:49:59.893Z,46.79
2023-05-03T15:54:01.295Z,45.56
2023-05-03T15:58:02.631Z,45.55
2023-05-03T16:02:04.112Z,46.25
2023-05-03T16:06:06.282Z,45.60
2023-05-03T16:10:08.770Z,44.84
2023-05-03T16:14:10.223Z,44.89
2023-05-03T16:18:11.921Z,44.98
2023-05-03T16:22:13.936Z,45.51
2023-05-03T16:26:18.700Z,45.70
2023-05-03T16:30:20.368Z,46.02
2023-05-03T16:34:22.433Z,45.27
2023-05-03T16:38:29.679Z,46.08
2023-05-03T16:42:31.578Z,47.49
2023-05-03T16:46:34.130Z,45.40
2023-05-03T16:50:36.997Z,46.20
2023-05-03T16:54:39.423Z,46.27
2023-05-03T16:58:40.835Z,46.76
2023-05-03T17:02:42.272Z,48.05
2023-05-03T17:06:43.739Z,48.60
2023-05-03T17:10:45.092Z,48.67
2023-05-03T17:14:47.794Z,49.48
2023-05-03T17:18:54.138Z,49.43
2023-05-03T17:22:57.141Z,49.27
2023-05-03T17:26:58.993Z,50.68
2023-05-03T17:31:55.824Z,50.90
2023-05-03T17:35:59.957Z,51.13
2023-05-03T17:40:18.719Z,50.57
2023-05-03T17:44:20.143Z,51.74
2023-05-03T17:48:23.602Z,52.07
2023-05-03T17:52:25.029Z,52.41
2023-05-03T17:56:26.580Z,53.20
2023-05-03T18:00:37.614Z,53.43
2023-05-03T18:04:38.998Z,54.25
2023-05-03T18:08:40.982Z,54.51
2023-05-03T18:12:42.935Z,55.19
2023-05-03T18:16:44.576Z,55.13
2023-05-03T18:20:46.131Z,55.64
2023-05-03T18:24:54.854Z,55.67
2023-05-03T18:28:56.384Z,55.82
2023-05-03T18:32:59.464Z,56.30
2023-05-03T18:37:01.054Z,56.61
2023-05-03T18:41:10.122Z,56.92
2023-05-03T18:45:14.318Z,57.55
2023-05-03T18:49:16.236Z,58.11
2023-05-03T18:53:17.559Z,58.53
2023-05-03T18:57:19.394Z,58.63
2023-05-03T19:01:20.774Z,59.21
2023-05-03T19:05:22.191Z,59.87
2023-05-03T19:09:23.990Z,60.50
2023-05-03T19:13:25.421Z,61.38
2023-05-03T19:17:27.554Z,62.40
2023-05-03T19:21:29.003Z,62.83
2023-05-03T19:25:30.538Z,63.16
2023-05-03T19:29:32.257Z,63.02
2023-05-03T19:33:38.800Z,62.89
2023-05-03T19:37:41.856Z,62.74
2023-05-03T19:41:43.523Z,62.71
2023-05-03T19:45:45.047Z,62.96
2023-05-03T19:49:46.560Z,63.50
2023-05-03T19:53:48.944Z,63.96
2023-05-03T19:57:50.612Z,66.68
2023-05-03T20:01:52.089Z,69.80
2023-05-03T20:06:02.696Z,71.99
2023-05-03T20:10:05.054Z,73.72
2023-05-03T20:14:18.031Z,74.82
2023-05-03T20:18:19.451Z,76.09
2023-05-03T20:22:35.439Z,74.73
2023-05-03T20:26:37.708Z,74.91
2023-05-03T20:30:45.411Z,74.13
2023-05-03T20:34:46.773Z,73.73
2023-05-03T20:39:08.996Z,74.20
2023-05-03T20:43:10.826Z,74.42
2023-05-03T20:47:17.394Z,74.34
2023-05-03T20:51:18.806Z,74.57
2023-05-03T20:55:20.274Z,75.02
2023-05-03T20:59:21.653Z,75.50
2023-05-03T21:03:28.268Z,75.80
2023-05-03T21:07:30.035Z,75.77
2023-05-03T21:11:31.436Z,76.46
2023-05-03T21:15:32.817Z,76.85
2023-05-03T21:19:47.551Z,77.54
2023-05-03T21:23:48.982Z,78.49
2023-05-03T21:27:50.340Z,78.77
2023-05-03T21:32:43.339Z,79.56
2023-05-03T21:36:44.650Z,80.09
2023-05-03T21:40:48.881Z,80.94
2023-05-03T21:44:50.589Z,81.35
2023-05-03T21:48:51.982Z,81.61
2023-05-03T21:52:53.508Z,80.88
2023-05-03T21:56:54.869Z,80.44
2023-05-03T22:00:56.808Z,80.58
2023-05-03T22:05:07.051Z,80.85
2023-05-03T22:09:09.043Z,81.93
2023-05-03T22:13:10.816Z,83.48
2023-05-03T22:17:16.137Z,82.61
2023-05-03T22:21:17.867Z,83.69
2023-05-03T22:25:26.553Z,84.94
2023-05-03T22:29:28.036Z,84.32
2023-05-03T22:33:29.451Z,84.23
2023-05-03T22:37:50.457Z,84.06
2023-05-03T22:41:52.422Z,84.37
2023-05-03T22:45:53.922Z,83.81
2023-05-03T22:49:55.337Z,84.73
2023-05-03T22:53:58.945Z,84.65
2023-05-03T22:58:00.357Z,84.33
2023-05-03T23:02:09.119Z,84.33
2023-05-03T23:06:10.770Z,84.35
2023-05-03T23:10:12.178Z,84.54
2023-05-03T23:14:42.766Z,84.83
2023-05-03T23:18:44.125Z,84.71
2023-05-03T23:22:45.548Z,85.79
2023-05-03T23:26:47.940Z,85.83
2023-05-03T23:30:50.467Z,85.84
2023-05-03T23:34:52.312Z,85.88
2023-05-03T23:39:19.123Z,85.78
2023-05-03T23:43:20.693Z,85.22
2023-05-03T23:47:22.370Z,85.36
2023-05-03T23:51:24.272Z,86.98
2023-05-03T23:55:25.656Z,86.89
2023-05-03T23:59:43.728Z,86.17
